Time;durP1;ratioP1;P1;durP2;ratioP2;P2;SDS_P1;SDS_P2;PMS_P1;PMS_P2;Temp;Humidity;BMP_temperature;BMP_pressure;BME280_temperature;BME280_humidity;BME280_pressure;Samples;Min_cycle;Max_cycle;Signal;HPM_P1;HPM_P2
2022/10/30 00:02:14;;;;;;;15.07;7.90;;;;;;;;;;5279633;28;20043;-81
2022/10/30 00:04:45;;;;;;;18.67;8.00;;;;;;;;;;5279738;28;20147;-81
2022/10/30 00:07:16;;;;;;;19.75;7.78;;;;;;;;;;5278452;28;20799;-81
2022/10/30 00:09:47;;;;;;;15.10;7.77;;;;;;;;;;5281122;28;20037;-81
2022/10/30 00:12:19;;;;;;;13.57;7.07;;;;;;;;;;5262403;28;20516;-81
2022/10/30 00:14:50;;;;;;;13.53;7.63;;;;;;;;;;5281311;28;20279;-81
2022/10/30 00:17:21;;;;;;;13.10;7.00;;;;;;;;;;5262665;28;20021;-81
2022/10/30 00:19:52;;;;;;;16.65;7.43;;;;;;;;;;5262315;28;20041;-81
2022/10/30 00:22:23;;;;;;;16.47;8.07;;;;;;;;;;5261043;28;20021;-81
2022/10/30 00:24:55;;;;;;;18.90;7.20;;;;;;;;;;5280550;28;20284;-80
2022/10/30 00:27:26;;;;;;;18.87;7.63;;;;;;;;;;5280627;28;20609;-81
2022/10/30 00:29:57;;;;;;;19.00;9.20;;;;;;;;;;5279253;28;20041;-81
2022/10/30 00:32:28;;;;;;;15.90;7.57;;;;;;;;;;5259249;28;20064;-80
2022/10/30 00:34:59;;;;;;;19.67;7.50;;;;;;;;;;5281797;28;20295;-81
2022/10/30 00:37:30;;;;;;;17.23;7.40;;;;;;;;;;5167431;28;1465182;-81
2022/10/30 00:40:02;;;;;;;19.13;8.50;;;;;;;;;;5279453;28;20532;-80
2022/10/30 00:42:33;;;;;;;18.30;8.85;;;;;;;;;;5278200;28;20016;-81
2022/10/30 00:45:05;;;;;;;11.97;6.70;;;;;;;;;;5278583;28;20049;-81
2022/10/30 00:47:38;;;;;;;14.95;7.13;;;;;;;;;;5279958;28;20017;-81
2022/10/30 00:50:15;;;;;;;20.52;8.57;;;;;;;;;;5278569;28;20132;-81
2022/10/30 00:53:13;;;;;;;18.95;8.18;;;;;;;;;;5279661;28;20028;-81
2022/10/30 00:55:52;;;;;;;17.67;8.25;;;;;;;;;;5271179;28;20123;-81
2022/10/30 00:58:27;;;;;;;19.05;8.68;;;;;;;;;;5282880;28;20060;-81
2022/10/30 01:01:01;;;;;;;14.68;7.72;;;;;;;;;;5273517;28;20379;-80
2022/10/30 01:03:34;;;;;;;18.42;7.53;;;;;;;;;;5276617;28;20075;-81
2022/10/30 01:06:07;;;;;;;16.38;8.32;;;;;;;;;;5277213;28;20025;-80
2022/10/30 01:08:38;;;;;;;15.68;7.93;;;;;;;;;;5280512;28;20049;-81
2022/10/30 01:11:10;;;;;;;15.30;7.65;;;;;;;;;;5283083;28;20087;-80
2022/10/30 01:13:45;;;;;;;14.82;7.75;;;;;;;;;;5282327;28;20424;-81
2022/10/30 01:16:24;;;;;;;14.52;7.60;;;;;;;;;;5281387;28;20152;-80
2022/10/30 01:19:01;;;;;;;18.65;8.45;;;;;;;;;;5282850;28;20029;-80
2022/10/30 01:21:32;;;;;;;16.38;7.43;;;;;;;;;;5280396;28;20075;-81
2022/10/30 01:24:22;;;;;;;15.10;8.20;;;;;;;;;;5281637;28;20442;-81
2022/10/30 01:27:12;;;;;;;20.67;8.20;;;;;;;;;;5280848;28;20377;-81
2022/10/30 01:29:53;;;;;;;12.75;8.05;;;;;;;;;;5279268;28;20029;-81
2022/10/30 01:32:24;;;;;;;17.10;7.90;;;;;;;;;;5283914;28;20037;-80
2022/10/30 01:35:19;;;;;;;12.63;6.63;;;;;;;;;;5282711;28;20036;-80
2022/10/30 01:38:01;;;;;;;21.02;8.40;;;;;;;;;;5236616;28;20052;-80
2022/10/30 01:40:33;;;;;;;18.50;7.90;;;;;;;;;;5282820;28;20378;-81
2022/10/30 01:43:04;;;;;;;13.75;7.50;;;;;;;;;;5277070;28;131093;-81
2022/10/30 01:45:54;;;;;;;14.37;7.97;;;;;;;;;;5281029;28;20044;-80
2022/10/30 01:48:44;;;;;;;14.82;8.13;;;;;;;;;;5280078;28;20790;-81
2022/10/30 01:51:20;;;;;;;22.30;8.98;;;;;;;;;;5283803;28;20021;-81
2022/10/30 01:53:52;;;;;;;13.55;7.80;;;;;;;;;;5282064;28;20036;-81
2022/10/30 01:56:26;;;;;;;14.55;8.18;;;;;;;;;;5282205;28;20025;-81
2022/10/30 01:59:06;;;;;;;15.18;7.95;;;;;;;;;;5281644;28;20037;-80
2022/10/30 02:01:38;;;;;;;19.73;8.98;;;;;;;;;;5280990;28;20061;-81
2022/10/30 02:04:11;;;;;;;21.90;9.10;;;;;;;;;;5282442;28;20570;-80
2022/10/30 02:06:42;;;;;;;18.52;8.63;;;;;;;;;;5280839;28;20035;-81
2022/10/30 02:09:14;;;;;;;18.40;8.73;;;;;;;;;;5279820;28;20033;-80
2022/10/30 02:11:45;;;;;;;18.52;9.05;;;;;;;;;;5283861;28;20340;-81
2022/10/30 02:14:20;;;;;;;21.13;9.27;;;;;;;;;;5266355;28;20080;-80
2022/10/30 02:16:53;;;;;;;20.85;8.38;;;;;;;;;;5282178;28;20495;-81
2022/10/30 02:19:25;;;;;;;15.63;7.68;;;;;;;;;;5280547;28;20025;-80
2022/10/30 02:21:56;;;;;;;15.43;8.85;;;;;;;;;;5263877;28;20029;-80
2022/10/30 02:24:28;;;;;;;19.98;8.60;;;;;;;;;;5282633;28;20033;-80
2022/10/30 02:26:59;;;;;;;21.08;8.60;;;;;;;;;;5283548;28;20025;-81
2022/10/30 02:29:30;;;;;;;18.23;8.68;;;;;;;;;;5264549;28;20029;-81
2022/10/30 02:32:02;;;;;;;16.27;8.25;;;;;;;;;;5280722;28;20025;-80
2022/10/30 02:34:33;;;;;;;15.45;8.35;;;;;;;;;;5281470;28;20448;-80
2022/10/30 02:37:04;;;;;;;21.80;8.83;;;;;;;;;;5280720;28;20485;-80
2022/10/30 02:39:35;;;;;;;14.70;9.10;;;;;;;;;;5280305;28;20037;-80
2022/10/30 02:42:07;;;;;;;26.60;9.00;;;;;;;;;;5280557;28;20036;-80
2022/10/30 02:44:38;;;;;;;18.20;8.68;;;;;;;;;;5278010;28;20299;-80
2022/10/30 02:47:09;;;;;;;16.70;8.83;;;;;;;;;;5263404;28;20155;-80
2022/10/30 02:49:40;;;;;;;17.43;8.37;;;;;;;;;;5263529;28;20516;-80
2022/10/30 02:52:11;;;;;;;19.37;8.83;;;;;;;;;;5282655;28;20268;-80
2022/10/30 02:54:42;;;;;;;14.93;8.60;;;;;;;;;;5278782;28;20048;-80
2022/10/30 02:57:13;;;;;;;20.10;8.30;;;;;;;;;;5280422;28;20087;-80
2022/10/30 02:59:45;;;;;;;17.57;8.77;;;;;;;;;;5277669;28;20350;-80
2022/10/30 03:02:16;;;;;;;16.83;8.33;;;;;;;;;;5280828;28;20888;-80
2022/10/30 03:04:47;;;;;;;15.73;8.27;;;;;;;;;;5281206;28;20386;-80
2022/10/30 03:07:18;;;;;;;16.73;8.93;;;;;;;;;;5280647;28;20021;-80
2022/10/30 03:09:50;;;;;;;16.80;8.97;;;;;;;;;;5281502;28;20044;-80
2022/10/30 03:12:22;;;;;;;17.23;8.85;;;;;;;;;;5280226;28;20072;-80
2022/10/30 03:14:53;;;;;;;17.60;8.53;;;;;;;;;;5281256;28;20048;-80
2022/10/30 03:17:24;;;;;;;21.00;9.00;;;;;;;;;;5281637;28;20029;-80
2022/10/30 03:19:55;;;;;;;17.00;8.53;;;;;;;;;;5277106;28;21061;-80
2022/10/30 03:22:26;;;;;;;16.87;8.57;;;;;;;;;;5280131;28;20350;-80
2022/10/30 03:24:58;;;;;;;16.08;8.48;;;;;;;;;;5285143;28;20540;-80
2022/10/30 03:27:29;;;;;;;16.73;8.27;;;;;;;;;;5281970;28;20056;-80
2022/10/30 03:30:00;;;;;;;19.27;9.05;;;;;;;;;;5282124;28;20415;-80
2022/10/30 03:32:31;;;;;;;18.05;9.10;;;;;;;;;;5264962;28;20117;-80
2022/10/30 03:35:02;;;;;;;14.65;8.18;;;;;;;;;;5281641;28;20120;-80
2022/10/30 03:37:34;;;;;;;12.73;8.77;;;;;;;;;;5264716;28;20067;-80
2022/10/30 03:40:05;;;;;;;16.90;8.13;;;;;;;;;;5295163;28;20270;-80
2022/10/30 03:42:38;;;;;;;13.93;8.32;;;;;;;;;;5291564;28;20609;-80
2022/10/30 03:45:09;;;;;;;17.15;8.48;;;;;;;;;;5292041;28;20060;-80
2022/10/30 03:47:41;;;;;;;21.57;8.90;;;;;;;;;;5292676;28;20055;-81
2022/10/30 03:50:12;;;;;;;15.93;8.80;;;;;;;;;;5268786;28;20307;-81
2022/10/30 03:52:43;;;;;;;22.27;8.27;;;;;;;;;;5284205;28;20251;-81
2022/10/30 03:55:14;;;;;;;22.50;8.57;;;;;;;;;;5272622;28;20290;-81
2022/10/30 03:57:45;;;;;;;22.00;8.40;;;;;;;;;;5285874;28;20028;-80
2022/10/30 04:00:17;;;;;;;17.33;9.73;;;;;;;;;;5259807;28;20301;-80
2022/10/30 04:02:50;;;;;;;15.35;8.50;;;;;;;;;;5277005;28;113206;-80
2022/10/30 04:05:22;;;;;;;14.52;8.43;;;;;;;;;;5280449;28;20448;-80
2022/10/30 04:07:57;;;;;;;14.18;8.50;;;;;;;;;;5279397;28;20032;-80
2022/10/30 04:10:28;;;;;;;13.50;7.18;;;;;;;;;;5280692;28;20036;-81
2022/10/30 04:13:05;;;;;;;21.52;9.25;;;;;;;;;;5279267;28;20085;-80
2022/10/30 04:15:36;;;;;;;23.23;8.75;;;;;;;;;;5279621;28;20047;-80
2022/10/30 04:18:10;;;;;;;15.50;8.85;;;;;;;;;;5278682;28;20486;-81
2022/10/30 04:20:41;;;;;;;15.05;9.02;;;;;;;;;;5278756;28;20094;-80
2022/10/30 04:23:14;;;;;;;19.35;9.35;;;;;;;;;;5281142;28;20027;-80
2022/10/30 04:25:45;;;;;;;22.65;9.23;;;;;;;;;;5279237;28;20031;-80
2022/10/30 04:28:16;;;;;;;20.02;9.23;;;;;;;;;;5275790;28;20037;-80
2022/10/30 04:30:48;;;;;;;17.30;8.80;;;;;;;;;;5280159;28;20032;-80
2022/10/30 04:33:19;;;;;;;15.20;8.48;;;;;;;;;;5277933;28;20025;-81
2022/10/30 04:35:50;;;;;;;19.90;8.90;;;;;;;;;;5279119;28;20033;-81
2022/10/30 04:38:21;;;;;;;17.13;9.63;;;;;;;;;;5261943;28;20262;-80
2022/10/30 04:40:52;;;;;;;17.60;8.50;;;;;;;;;;5279184;28;20280;-81
2022/10/30 04:43:24;;;;;;;19.83;9.47;;;;;;;;;;5280089;28;20071;-81
2022/10/30 04:45:55;;;;;;;22.52;9.70;;;;;;;;;;5278659;28;21709;-81
2022/10/30 04:48:26;;;;;;;18.47;10.20;;;;;;;;;;5277898;28;20041;-81
2022/10/30 04:50:58;;;;;;;19.40;9.07;;;;;;;;;;5280381;28;20383;-81
2022/10/30 04:53:29;;;;;;;21.27;9.75;;;;;;;;;;5280048;28;20111;-81
2022/10/30 04:56:00;;;;;;;18.43;9.27;;;;;;;;;;5280653;28;20083;-81
2022/10/30 04:58:31;;;;;;;17.77;9.60;;;;;;;;;;5262869;28;20025;-81
2022/10/30 05:01:03;;;;;;;13.47;8.77;;;;;;;;;;5259832;28;20032;-81
2022/10/30 05:03:34;;;;;;;17.58;9.50;;;;;;;;;;5280846;28;20280;-81
2022/10/30 05:06:11;;;;;;;26.83;10.07;;;;;;;;;;5279168;28;20064;-81
2022/10/30 05:08:42;;;;;;;18.38;9.80;;;;;;;;;;5278934;28;20033;-81
2022/10/30 05:11:14;;;;;;;20.88;9.80;;;;;;;;;;5279203;28;20104;-81
2022/10/30 05:13:45;;;;;;;16.67;8.93;;;;;;;;;;5281321;28;20087;-81
2022/10/30 05:16:16;;;;;;;17.27;8.80;;;;;;;;;;5279465;28;20048;-81
2022/10/30 05:18:48;;;;;;;15.35;9.38;;;;;;;;;;5278494;28;20057;-81
2022/10/30 05:21:19;;;;;;;23.07;9.33;;;;;;;;;;5280696;28;20033;-81
2022/10/30 05:23:50;;;;;;;23.57;8.63;;;;;;;;;;5289767;28;20361;-80
2022/10/30 05:26:21;;;;;;;15.40;9.37;;;;;;;;;;5276906;28;20477;-81
2022/10/30 05:28:52;;;;;;;11.80;8.80;;;;;;;;;;5286828;28;20388;-81
2022/10/30 05:31:23;;;;;;;15.10;9.33;;;;;;;;;;5281891;28;20633;-81
2022/10/30 05:33:54;;;;;;;15.97;9.50;;;;;;;;;;5282203;28;20071;-81
2022/10/30 05:36:26;;;;;;;17.30;9.37;;;;;;;;;;5285103;28;20032;-81
2022/10/30 05:38:57;;;;;;;17.27;9.40;;;;;;;;;;5262483;28;20078;-81
2022/10/30 05:41:28;;;;;;;15.15;8.98;;;;;;;;;;5169187;28;983934;-81
2022/10/30 05:43:59;;;;;;;16.23;9.05;;;;;;;;;;5279556;28;20403;-81
2022/10/30 05:46:30;;;;;;;12.90;8.13;;;;;;;;;;5279599;28;20043;-81
2022/10/30 05:49:02;;;;;;;14.67;8.67;;;;;;;;;;5277254;28;20287;-81
2022/10/30 05:51:33;;;;;;;16.15;10.68;;;;;;;;;;5276417;28;20132;-81
2022/10/30 05:54:05;;;;;;;21.90;9.85;;;;;;;;;;5283310;28;20031;-80
2022/10/30 05:56:36;;;;;;;18.33;10.82;;;;;;;;;;5288081;28;20567;-80
2022/10/30 05:59:07;;;;;;;15.50;9.93;;;;;;;;;;5270403;28;20032;-80
2022/10/30 06:01:38;;;;;;;19.20;10.47;;;;;;;;;;5271249;28;20032;-80
2022/10/30 06:04:10;;;;;;;14.63;9.07;;;;;;;;;;5273030;28;20040;-80
2022/10/30 06:06:41;;;;;;;20.15;9.48;;;;;;;;;;5266237;28;20374;-80
2022/10/30 06:09:12;;;;;;;19.43;10.20;;;;;;;;;;5291850;28;20052;-81
2022/10/30 06:11:43;;;;;;;13.20;8.70;;;;;;;;;;5284700;28;20251;-80
2022/10/30 06:14:14;;;;;;;17.45;9.50;;;;;;;;;;5270205;28;20820;-80
2022/10/30 06:16:46;;;;;;;21.55;11.25;;;;;;;;;;5281330;28;20505;-80
2022/10/30 06:19:17;;;;;;;24.10;11.13;;;;;;;;;;5285760;28;20021;-80
2022/10/30 06:21:48;;;;;;;25.90;11.37;;;;;;;;;;5280763;28;20407;-81
2022/10/30 06:24:20;;;;;;;20.00;11.87;;;;;;;;;;5281417;28;20275;-80
2022/10/30 06:26:51;;;;;;;18.37;11.47;;;;;;;;;;5289340;28;20271;-80
2022/10/30 06:29:22;;;;;;;19.90;12.23;;;;;;;;;;5287502;28;20696;-80
2022/10/30 06:31:53;;;;;;;20.77;12.77;;;;;;;;;;5285740;28;20032;-80
2022/10/30 06:34:26;;;;;;;22.65;13.35;;;;;;;;;;5280786;28;20275;-80
2022/10/30 06:36:57;;;;;;;19.55;12.15;;;;;;;;;;5284034;28;20139;-81
2022/10/30 06:39:28;;;;;;;23.37;12.77;;;;;;;;;;5289763;28;20392;-80
2022/10/30 06:41:59;;;;;;;18.87;12.37;;;;;;;;;;5280216;28;20283;-81
2022/10/30 06:44:30;;;;;;;20.17;11.25;;;;;;;;;;5281515;28;20044;-81
2022/10/30 06:47:01;;;;;;;20.70;10.67;;;;;;;;;;5289002;28;20032;-80
2022/10/30 06:49:33;;;;;;;16.80;11.10;;;;;;;;;;5272607;28;20252;-80
2022/10/30 06:52:04;;;;;;;15.77;10.97;;;;;;;;;;5279726;28;20286;-80
2022/10/30 06:54:35;;;;;;;20.45;11.70;;;;;;;;;;5288316;28;20028;-80
2022/10/30 06:57:06;;;;;;;26.30;12.43;;;;;;;;;;5279155;28;20038;-80
2022/10/30 06:59:37;;;;;;;18.93;12.13;;;;;;;;;;5283772;28;20307;-81
2022/10/30 07:02:09;;;;;;;21.47;12.40;;;;;;;;;;5275369;28;20481;-80
2022/10/30 07:04:40;;;;;;;21.92;11.57;;;;;;;;;;5266235;28;20122;-80
2022/10/30 07:07:12;;;;;;;19.87;11.47;;;;;;;;;;5284320;28;20501;-80
2022/10/30 07:09:45;;;;;;;16.65;11.70;;;;;;;;;;5290738;28;20281;-80
2022/10/30 07:12:16;;;;;;;22.60;11.68;;;;;;;;;;5281665;28;20041;-80
2022/10/30 07:14:47;;;;;;;20.93;11.77;;;;;;;;;;5267447;28;20032;-80
2022/10/30 07:17:18;;;;;;;18.70;11.27;;;;;;;;;;5288437;28;20042;-80
2022/10/30 07:19:50;;;;;;;17.90;10.50;;;;;;;;;;5288302;28;20028;-81
2022/10/30 07:22:21;;;;;;;21.60;10.40;;;;;;;;;;5279697;28;20025;-81
2022/10/30 07:24:52;;;;;;;23.80;11.88;;;;;;;;;;5290264;28;20279;-81
2022/10/30 07:27:23;;;;;;;17.90;10.38;;;;;;;;;;5293285;28;20406;-81
2022/10/30 07:29:54;;;;;;;22.15;10.98;;;;;;;;;;5285422;28;20121;-81
2022/10/30 07:32:26;;;;;;;14.57;10.80;;;;;;;;;;5286057;28;20028;-81
2022/10/30 07:34:57;;;;;;;17.53;9.67;;;;;;;;;;5278521;28;20044;-81
2022/10/30 07:37:30;;;;;;;13.90;8.03;;;;;;;;;;5287606;28;20350;-80
2022/10/30 07:40:01;;;;;;;13.85;8.60;;;;;;;;;;5285664;28;20079;-81
2022/10/30 07:42:33;;;;;;;14.73;7.88;;;;;;;;;;5285481;28;20021;-80
2022/10/30 07:45:04;;;;;;;17.23;8.85;;;;;;;;;;5282417;28;20045;-81
2022/10/30 07:47:42;;;;;;;15.55;8.23;;;;;;;;;;5287770;28;20033;-81
2022/10/30 07:50:13;;;;;;;17.73;7.70;;;;;;;;;;5284705;28;20041;-81
2022/10/30 07:52:44;;;;;;;13.20;7.60;;;;;;;;;;5284668;28;20033;-81
2022/10/30 07:55:16;;;;;;;8.55;5.63;;;;;;;;;;5283205;28;20039;-81
2022/10/30 07:57:47;;;;;;;14.63;7.05;;;;;;;;;;5283785;28;20028;-80
2022/10/30 08:00:18;;;;;;;13.57;6.35;;;;;;;;;;5285382;28;20029;-81
2022/10/30 08:02:50;;;;;;;12.03;6.10;;;;;;;;;;5289750;28;20033;-81
2022/10/30 08:05:21;;;;;;;13.25;6.65;;;;;;;;;;5295039;28;20287;-81
2022/10/30 08:07:53;;;;;;;18.03;7.70;;;;;;;;;;5293650;28;20032;-81
2022/10/30 08:10:24;;;;;;;11.45;5.90;;;;;;;;;;5289532;28;20140;-81
2022/10/30 08:12:56;;;;;;;12.15;6.30;;;;;;;;;;5294838;28;20064;-81
2022/10/30 08:15:27;;;;;;;13.98;6.43;;;;;;;;;;5274540;28;20044;-81
2022/10/30 08:17:58;;;;;;;10.83;6.07;;;;;;;;;;5262728;28;20029;-81
2022/10/30 08:20:29;;;;;;;12.90;6.05;;;;;;;;;;5297540;28;20287;-81
2022/10/30 08:23:01;;;;;;;9.43;6.53;;;;;;;;;;5297913;28;20030;-81
2022/10/30 08:25:32;;;;;;;17.03;6.70;;;;;;;;;;5285836;28;20265;-81
2022/10/30 08:28:04;;;;;;;15.53;5.73;;;;;;;;;;5284510;28;20028;-80
2022/10/30 08:30:36;;;;;;;15.20;6.25;;;;;;;;;;5283901;28;20037;-80
2022/10/30 08:33:14;;;;;;;13.02;6.68;;;;;;;;;;5278366;28;20116;-80
2022/10/30 08:35:46;;;;;;;10.90;5.97;;;;;;;;;;5290319;28;20111;-80
2022/10/30 08:38:17;;;;;;;14.32;6.28;;;;;;;;;;5283579;28;20552;-80
2022/10/30 08:40:48;;;;;;;14.43;6.25;;;;;;;;;;5291271;28;20032;-81
2022/10/30 08:43:20;;;;;;;11.87;6.40;;;;;;;;;;5295349;28;20032;-81
2022/10/30 08:45:51;;;;;;;17.27;6.47;;;;;;;;;;5294741;28;20120;-81
2022/10/30 08:48:23;;;;;;;16.38;6.28;;;;;;;;;;5293231;28;20039;-80
2022/10/30 08:50:57;;;;;;;11.63;6.10;;;;;;;;;;5285015;28;20485;-80
2022/10/30 08:53:28;;;;;;;17.20;6.57;;;;;;;;;;5281483;28;20072;-80
2022/10/30 08:55:59;;;;;;;14.03;6.20;;;;;;;;;;5283511;28;20124;-80
2022/10/30 08:58:31;;;;;;;12.20;6.60;;;;;;;;;;5279019;28;20370;-80
2022/10/30 09:01:02;;;;;;;16.87;6.50;;;;;;;;;;5282861;28;20036;-80
2022/10/30 09:03:33;;;;;;;12.17;5.83;;;;;;;;;;5279371;28;20605;-80
2022/10/30 09:06:04;;;;;;;17.33;6.67;;;;;;;;;;5276587;28;20276;-80
2022/10/30 09:08:36;;;;;;;11.63;5.78;;;;;;;;;;5279880;28;20374;-80
2022/10/30 09:11:07;;;;;;;12.73;5.80;;;;;;;;;;5279380;28;20031;-81
2022/10/30 09:13:38;;;;;;;12.67;4.90;;;;;;;;;;5281789;28;20124;-80
2022/10/30 09:16:09;;;;;;;8.77;5.17;;;;;;;;;;5281680;28;20512;-81
2022/10/30 09:18:40;;;;;;;10.93;4.53;;;;;;;;;;5281199;28;20370;-81
2022/10/30 09:21:11;;;;;;;9.33;4.60;;;;;;;;;;5296491;28;20426;-80
2022/10/30 09:23:43;;;;;;;8.60;4.80;;;;;;;;;;5286091;28;20413;-81
2022/10/30 09:26:14;;;;;;;8.30;3.90;;;;;;;;;;5298211;28;20032;-81
2022/10/30 09:28:46;;;;;;;11.27;5.07;;;;;;;;;;5275407;28;20077;-81
2022/10/30 09:31:17;;;;;;;13.55;5.38;;;;;;;;;;5290291;28;20045;-81
2022/10/30 09:33:48;;;;;;;10.83;4.73;;;;;;;;;;5287115;28;20020;-81
2022/10/30 09:36:20;;;;;;;12.17;5.60;;;;;;;;;;5289516;28;20304;-80
2022/10/30 09:38:52;;;;;;;11.97;5.37;;;;;;;;;;5282797;28;20640;-81
2022/10/30 09:41:23;;;;;;;11.60;5.35;;;;;;;;;;5293942;28;20063;-81
2022/10/30 09:44:13;;;;;;;14.05;4.68;;;;;;;;;;5288114;28;20064;-81
2022/10/30 09:47:11;;;;;;;12.15;4.72;;;;;;;;;;5279851;28;20135;-81
2022/10/30 09:49:42;;;;;;;9.43;4.45;;;;;;;;;;5253331;28;20071;-81
2022/10/30 09:52:40;;;;;;;15.05;4.80;;;;;;;;;;5290635;28;20052;-81
2022/10/30 09:55:16;;;;;;;11.75;5.13;;;;;;;;;;5278227;28;20049;-80
2022/10/30 09:57:52;;;;;;;10.80;4.75;;;;;;;;;;5265052;28;20032;-80
2022/10/30 10:00:29;;;;;;;14.63;5.78;;;;;;;;;;5272155;28;20033;-81
2022/10/30 10:03:10;;;;;;;11.30;4.57;;;;;;;;;;5272058;28;20363;-80
2022/10/30 10:05:47;;;;;;;10.50;4.53;;;;;;;;;;5284048;28;20484;-81
2022/10/30 10:08:21;;;;;;;15.90;4.68;;;;;;;;;;5288397;28;20043;-81
2022/10/30 10:10:56;;;;;;;9.98;4.63;;;;;;;;;;5282829;28;20037;-80
2022/10/30 10:13:31;;;;;;;11.63;5.78;;;;;;;;;;5283988;28;20477;-81
2022/10/30 10:16:21;;;;;;;13.93;5.20;;;;;;;;;;5287118;28;20112;-81
2022/10/30 10:19:12;;;;;;;8.63;4.28;;;;;;;;;;5273565;28;20163;-81
2022/10/30 10:21:46;;;;;;;10.00;4.43;;;;;;;;;;5283191;28;20033;-81
2022/10/30 10:24:20;;;;;;;13.10;4.85;;;;;;;;;;5267405;28;20044;-81
2022/10/30 10:27:11;;;;;;;12.65;4.80;;;;;;;;;;5287188;28;20033;-82
2022/10/30 10:30:00;;;;;;;14.32;4.72;;;;;;;;;;5285435;28;20045;-81
2022/10/30 10:32:50;;;;;;;14.50;4.82;;;;;;;;;;5277491;28;20035;-82
2022/10/30 10:35:40;;;;;;;11.52;4.68;;;;;;;;;;5284502;28;20444;-82
2022/10/30 10:38:12;;;;;;;12.25;4.35;;;;;;;;;;5273286;28;20075;-83
2022/10/30 10:40:50;;;;;;;14.07;4.75;;;;;;;;;;5289976;28;20064;-83
2022/10/30 10:43:37;;;;;;;16.70;5.53;;;;;;;;;;5288525;28;20036;-82
2022/10/30 10:46:09;;;;;;;10.55;4.38;;;;;;;;;;5284098;28;20041;-81
2022/10/30 10:48:40;;;;;;;16.47;4.37;;;;;;;;;;5290453;28;20495;-81
2022/10/30 10:51:15;;;;;;;14.30;4.53;;;;;;;;;;5292034;28;20422;-82
2022/10/30 10:53:52;;;;;;;10.38;4.07;;;;;;;;;;5269901;28;20048;-83
2022/10/30 10:56:26;;;;;;;13.48;4.40;;;;;;;;;;5295915;28;20039;-83
2022/10/30 10:58:59;;;;;;;17.67;5.07;;;;;;;;;;5291804;28;20078;-82
2022/10/30 11:01:38;;;;;;;11.23;3.83;;;;;;;;;;5290379;28;20029;-82
2022/10/30 11:04:18;;;;;;;12.60;4.10;;;;;;;;;;5294968;28;20793;-82
2022/10/30 11:06:51;;;;;;;11.82;4.57;;;;;;;;;;5270915;28;20056;-82
2022/10/30 11:09:22;;;;;;;12.98;4.20;;;;;;;;;;5289136;28;20028;-82
2022/10/30 11:11:54;;;;;;;12.43;4.47;;;;;;;;;;5286531;28;20080;-83
2022/10/30 11:14:29;;;;;;;12.98;4.93;;;;;;;;;;5279276;28;20392;-83
2022/10/30 11:17:03;;;;;;;10.30;4.03;;;;;;;;;;5295546;28;20024;-83
2022/10/30 11:19:34;;;;;;;9.40;4.03;;;;;;;;;;5299731;28;20037;-82
2022/10/30 11:22:17;;;;;;;12.67;4.30;;;;;;;;;;5291348;28;20075;-83
2022/10/30 11:24:48;;;;;;;9.90;4.05;;;;;;;;;;5290857;28;20060;-83
2022/10/30 11:27:23;;;;;;;10.77;4.00;;;;;;;;;;5290449;28;20099;-82
2022/10/30 11:30:03;;;;;;;14.07;5.00;;;;;;;;;;5286619;28;20033;-83
2022/10/30 11:32:34;;;;;;;10.13;4.03;;;;;;;;;;5274834;28;20057;-83
2022/10/30 11:35:08;;;;;;;10.07;3.80;;;;;;;;;;5285812;28;20059;-82
2022/10/30 11:37:40;;;;;;;11.73;4.20;;;;;;;;;;5276169;28;20094;-82
2022/10/30 11:40:11;;;;;;;13.98;4.38;;;;;;;;;;5287645;28;20116;-82
2022/10/30 11:42:45;;;;;;;9.18;4.13;;;;;;;;;;5263991;28;20547;-82
2022/10/30 11:45:25;;;;;;;13.63;4.97;;;;;;;;;;5277810;28;20489;-82
2022/10/30 11:47:57;;;;;;;15.82;5.45;;;;;;;;;;5279740;28;20075;-82
2022/10/30 11:50:29;;;;;;;19.40;5.00;;;;;;;;;;5283746;28;20470;-82
2022/10/30 11:53:02;;;;;;;16.17;4.72;;;;;;;;;;5287130;28;20043;-81
2022/10/30 11:55:46;;;;;;;14.60;4.88;;;;;;;;;;5271476;28;20059;-82
2022/10/30 11:58:22;;;;;;;16.27;4.75;;;;;;;;;;5289928;28;20104;-81
2022/10/30 12:00:58;;;;;;;16.10;5.45;;;;;;;;;;5271569;28;20029;-82
2022/10/30 12:03:34;;;;;;;8.95;4.93;;;;;;;;;;5289023;28;20029;-82
2022/10/30 12:06:05;;;;;;;;;;;;;;;;;;5296733;28;20032;-82
2022/10/30 12:08:39;;;;;;;13.18;5.15;;;;;;;;;;5286334;28;19958;-82
2022/10/30 12:11:10;;;;;;;15.32;4.82;;;;;;;;;;5284565;28;22039;-82
2022/10/30 12:13:42;;;;;;;11.07;5.53;;;;;;;;;;5264726;28;20025;-82
2022/10/30 12:16:14;;;;;;;14.13;5.50;;;;;;;;;;5278955;28;20341;-81
2022/10/30 12:19:02;;;;;;;14.93;5.30;;;;;;;;;;5282045;28;20028;-81
2022/10/30 12:21:36;;;;;;;15.23;6.07;;;;;;;;;;5271029;28;20033;-82
2022/10/30 12:24:13;;;;;;;13.85;5.03;;;;;;;;;;5281415;28;20037;-81
2022/10/30 12:26:46;;;;;;;9.73;4.80;;;;;;;;;;5281644;28;20028;-82
2022/10/30 12:29:20;;;;;;;21.70;6.38;;;;;;;;;;5280427;28;20073;-82
2022/10/30 12:31:52;;;;;;;12.43;5.20;;;;;;;;;;5279606;28;20024;-82
2022/10/30 12:34:38;;;;;;;17.27;5.80;;;;;;;;;;5282762;28;20385;-82
2022/10/30 12:37:21;;;;;;;15.77;6.65;;;;;;;;;;5275972;28;20434;-82
2022/10/30 12:39:52;;;;;;;11.55;5.32;;;;;;;;;;5283830;28;20024;-82
2022/10/30 12:42:24;;;;;;;12.63;4.85;;;;;;;;;;5281833;28;20577;-82
2022/10/30 12:45:15;;;;;;;11.68;5.55;;;;;;;;;;5275967;28;20120;-82
2022/10/30 12:47:59;;;;;;;14.88;5.68;;;;;;;;;;5268552;28;20134;-82
2022/10/30 12:50:46;;;;;;;13.32;5.47;;;;;;;;;;5275817;28;20037;-81
2022/10/30 12:53:17;;;;;;;;;;;;;;;;;;5283603;28;20389;-82
2022/10/30 12:55:49;;;;;;;15.15;5.03;;;;;;;;;;5287753;28;19912;-83
2022/10/30 12:58:32;;;;;;;18.27;4.82;;;;;;;;;;5282486;28;20115;-82
2022/10/30 13:01:08;;;;;;;16.23;4.95;;;;;;;;;;5277763;28;20033;-82
2022/10/30 13:03:39;;;;;;;;;;;;;;;;;;5260567;28;20112;-82
2022/10/30 13:06:14;;;;;;;12.27;4.07;;;;;;;;;;5284523;28;20459;-82
2022/10/30 13:08:54;;;;;;;11.65;4.18;;;;;;;;;;5287844;28;20462;-83
2022/10/30 13:11:36;;;;;;;12.10;4.05;;;;;;;;;;5285405;28;20468;-83
2022/10/30 13:14:30;;;;;;;9.55;4.28;;;;;;;;;;5283854;28;20044;-83
2022/10/30 13:17:01;;;;;;;12.90;4.40;;;;;;;;;;5288932;28;20517;-83
2022/10/30 13:19:32;;;;;;;14.48;4.28;;;;;;;;;;5287898;28;20163;-83
2022/10/30 13:22:06;;;;;;;14.40;4.33;;;;;;;;;;5286403;28;20033;-83
2022/10/30 13:24:56;;;;;;;12.15;4.18;;;;;;;;;;5285186;28;20290;-82
2022/10/30 13:27:50;;;;;;;14.82;4.45;;;;;;;;;;5292582;28;20116;-82
2022/10/30 13:30:24;;;;;;;12.00;4.72;;;;;;;;;;5287556;28;20036;-82
2022/10/30 13:32:58;;;;;;;14.32;4.40;;;;;;;;;;5292734;28;20036;-84
2022/10/30 13:35:35;;;;;;;12.00;4.40;;;;;;;;;;5284986;28;20029;-82
2022/10/30 13:38:21;;;;;;;13.13;4.63;;;;;;;;;;5283441;28;20061;-82
2022/10/30 13:40:56;;;;;;;12.52;3.97;;;;;;;;;;5291018;28;20382;-82
2022/10/30 13:43:37;;;;;;;9.85;4.13;;;;;;;;;;5284143;28;20037;-81
2022/10/30 13:46:16;;;;;;;14.50;5.40;;;;;;;;;;5285059;28;20052;-81
2022/10/30 13:48:58;;;;;;;14.45;4.70;;;;;;;;;;5286740;28;20033;-81
2022/10/30 13:51:41;;;;;;;11.88;4.63;;;;;;;;;;5286450;28;20065;-80
2022/10/30 13:54:28;;;;;;;12.20;4.45;;;;;;;;;;5284690;28;20107;-80
2022/10/30 13:57:03;;;;;;;11.32;4.80;;;;;;;;;;5284879;28;20033;-81
2022/10/30 13:59:46;;;;;;;14.73;4.40;;;;;;;;;;5284499;28;20438;-81
2022/10/30 14:02:17;;;;;;;13.10;4.38;;;;;;;;;;5280679;28;20136;-81
2022/10/30 14:04:53;;;;;;;15.00;5.30;;;;;;;;;;5285005;28;20675;-81
2022/10/30 14:07:42;;;;;;;14.27;4.85;;;;;;;;;;5288975;28;20116;-81
2022/10/30 14:10:19;;;;;;;12.45;4.95;;;;;;;;;;5289836;28;20048;-81
2022/10/30 14:12:53;;;;;;;18.88;5.13;;;;;;;;;;5284184;28;20112;-81
2022/10/30 14:15:40;;;;;;;13.15;4.70;;;;;;;;;;5278992;28;20083;-81
2022/10/30 14:18:11;;;;;;;15.80;5.00;;;;;;;;;;5279417;28;20024;-82
2022/10/30 14:20:45;;;;;;;13.80;4.63;;;;;;;;;;5287379;28;20036;-81
2022/10/30 14:23:36;;;;;;;13.70;4.28;;;;;;;;;;5287018;28;20453;-81
2022/10/30 14:26:10;;;;;;;15.95;4.55;;;;;;;;;;5288580;28;20033;-81
2022/10/30 14:28:43;;;;;;;11.38;5.38;;;;;;;;;;5289835;28;20047;-81
2022/10/30 14:31:18;;;;;;;12.98;4.97;;;;;;;;;;5296153;28;20070;-80
2022/10/30 14:33:56;;;;;;;15.65;4.35;;;;;;;;;;5285578;28;20025;-81
2022/10/30 14:36:47;;;;;;;16.60;5.35;;;;;;;;;;5302463;28;20385;-81
2022/10/30 14:39:18;;;;;;;12.07;4.40;;;;;;;;;;5293796;28;20412;-82
2022/10/30 14:41:59;;;;;;;13.45;4.45;;;;;;;;;;5289986;28;20083;-81
2022/10/30 14:44:42;;;;;;;10.15;4.40;;;;;;;;;;5287093;28;21675;-81
2022/10/30 14:47:19;;;;;;;18.52;5.35;;;;;;;;;;5275850;28;20041;-81
2022/10/30 14:50:00;;;;;;;10.68;4.25;;;;;;;;;;5283385;28;20500;-81
2022/10/30 14:52:34;;;;;;;15.45;4.80;;;;;;;;;;5289595;28;20044;-81
2022/10/30 14:55:21;;;;;;;10.95;4.78;;;;;;;;;;5285451;28;20151;-81
2022/10/30 14:58:12;;;;;;;13.48;4.80;;;;;;;;;;5289874;28;20143;-81
2022/10/30 15:00:44;;;;;;;13.77;4.40;;;;;;;;;;5284630;28;20055;-81
2022/10/30 15:03:17;;;;;;;12.82;4.22;;;;;;;;;;5276815;28;20025;-81
2022/10/30 15:05:51;;;;;;;18.58;4.78;;;;;;;;;;5281756;28;20052;-81
2022/10/30 15:08:32;;;;;;;11.65;4.07;;;;;;;;;;5259296;28;20040;-81
2022/10/30 15:11:22;;;;;;;14.85;4.57;;;;;;;;;;5272953;28;20069;-81
2022/10/30 15:13:59;;;;;;;12.27;4.57;;;;;;;;;;5277316;28;20681;-81